Time;durP1;ratioP1;P1;durP2;ratioP2;P2;SDS_P1;SDS_P2;PMS_P1;PMS_P2;Temp;Humidity;BMP_temperature;BMP_pressure;BME280_temperature;BME280_humidity;BME280_pressure;Samples;Min_cycle;Max_cycle;Signal;HPM_P1;HPM_P2
2023/05/22 00:02:28;;;;;;;17.67;12.70;;;;;;;17.88;100.00;99347.50;12187453;19;20010;-81
2023/05/22 00:06:32;;;;;;;19.10;13.73;;;;;;;17.81;100.00;99347.06;12208114;19;20007;-82
2023/05/22 00:10:34;;;;;;;19.75;12.25;;;;;;;17.73;100.00;99351.38;12218229;19;20020;-82
2023/05/22 00:14:36;;;;;;;16.65;12.43;;;;;;;17.63;100.00;99357.13;12200717;19;20519;-81
2023/05/22 00:18:41;;;;;;;17.95;13.13;;;;;;;17.54;100.00;99351.44;12217524;19;20003;-81
2023/05/22 00:22:43;;;;;;;20.67;13.93;;;;;;;17.43;100.00;99339.69;12221103;19;20020;-81
2023/05/22 00:26:45;;;;;;;18.83;14.18;;;;;;;17.35;100.00;99345.13;12194661;19;20085;-81
2023/05/22 00:30:47;;;;;;;17.23;13.30;;;;;;;17.24;100.00;99339.72;12219564;19;20007;-81
2023/05/22 00:34:49;;;;;;;18.85;13.30;;;;;;;17.18;100.00;99337.34;12219820;19;20074;-81
2023/05/22 00:38:51;;;;;;;19.33;14.45;;;;;;;17.10;100.00;99336.06;12194386;19;20082;-81
2023/05/22 00:42:53;;;;;;;18.75;13.73;;;;;;;17.02;100.00;99334.81;12208027;19;20463;-81
2023/05/22 00:46:55;;;;;;;22.02;14.93;;;;;;;16.94;100.00;99331.91;12212875;19;20078;-81
2023/05/22 00:50:59;;;;;;;19.17;13.55;;;;;;;16.82;100.00;99330.41;12197750;19;20007;-81
2023/05/22 00:55:02;;;;;;;21.67;14.38;;;;;;;16.72;100.00;99333.34;12217567;19;20013;-82
2023/05/22 00:59:04;;;;;;;21.60;13.73;;;;;;;16.62;100.00;99325.94;12217247;19;20011;-81
2023/05/22 01:03:06;;;;;;;23.77;13.57;;;;;;;16.55;100.00;99316.34;12195886;19;20012;-80
2023/05/22 01:07:08;;;;;;;20.88;15.68;;;;;;;16.48;100.00;99327.00;12214750;19;20487;-81
2023/05/22 01:11:29;;;;;;;17.77;13.07;;;;;;;16.41;100.00;99319.03;12196597;19;20011;-82
2023/05/22 01:15:31;;;;;;;19.27;14.75;;;;;;;16.33;100.00;99319.72;12218028;19;20494;-81
2023/05/22 01:20:00;;;;;;;21.05;14.32;;;;;;;16.26;100.00;99317.31;12205547;19;20341;-81
2023/05/22 01:24:12;;;;;;;21.70;14.82;;;;;;;16.16;100.00;99325.81;12192597;19;20007;-82
2023/05/22 01:28:59;;;;;;;20.33;14.67;;;;;;;16.08;100.00;99324.50;12215258;19;20056;-81
2023/05/22 01:33:03;;;;;;;19.88;14.38;;;;;;;16.04;100.00;99328.19;12192157;19;20014;-81
2023/05/22 01:37:05;;;;;;;22.42;14.43;;;;;;;15.99;100.00;99326.28;12215780;19;20033;-81
2023/05/22 01:41:08;;;;;;;21.60;14.75;;;;;;;15.96;100.00;99329.66;12198239;19;20029;-80
2023/05/22 01:45:11;;;;;;;19.77;14.88;;;;;;;15.91;100.00;99335.28;12217437;19;20006;-81
2023/05/22 01:49:12;;;;;;;22.75;15.45;;;;;;;15.88;100.00;99328.41;12213462;19;20015;-80
2023/05/22 01:53:28;;;;;;;22.80;15.00;;;;;;;15.86;100.00;99327.03;12192062;19;20030;-80
2023/05/22 01:57:45;;;;;;;23.90;14.77;;;;;;;15.85;100.00;99340.06;12216226;19;20014;-79
2023/05/22 02:01:50;;;;;;;20.30;15.13;;;;;;;15.77;100.00;99337.16;12214996;19;20081;-80
2023/05/22 02:05:54;;;;;;;21.20;14.38;;;;;;;15.68;100.00;99336.97;12188164;19;20010;-81
2023/05/22 02:09:57;;;;;;;22.10;14.55;;;;;;;15.66;100.00;99328.88;12211363;19;20018;-81
2023/05/22 02:14:02;;;;;;;19.52;15.18;;;;;;;15.68;100.00;99326.69;12211654;19;20011;-81
2023/05/22 02:18:11;;;;;;;19.23;14.35;;;;;;;15.71;100.00;99319.72;12192140;19;20079;-82
2023/05/22 02:22:15;;;;;;;22.25;14.27;;;;;;;15.71;100.00;99320.53;12213585;19;20006;-79
2023/05/22 02:26:17;;;;;;;19.83;14.32;;;;;;;15.75;100.00;99322.72;12212149;19;20007;-81
2023/05/22 02:30:19;;;;;;;21.27;14.60;;;;;;;15.74;100.00;99321.91;12233612;19;20011;-82
2023/05/22 02:34:25;;;;;;;21.52;13.25;;;;;;;15.73;100.00;99325.78;12220904;19;20007;-80
2023/05/22 02:38:27;;;;;;;17.85;13.02;;;;;;;15.71;100.00;99319.72;12196978;19;20004;-81
2023/05/22 02:42:29;;;;;;;18.33;13.63;;;;;;;15.69;100.00;99324.72;12217973;19;20002;-80
2023/05/22 02:46:30;;;;;;;20.95;14.07;;;;;;;15.70;100.00;99326.38;12212696;19;20010;-82
2023/05/22 02:50:32;;;;;;;19.60;13.03;;;;;;;15.70;100.00;99330.00;12194939;19;20037;-80
2023/05/22 02:54:34;;;;;;;18.17;13.13;;;;;;;15.68;100.00;99325.84;12216840;19;20010;-82
2023/05/22 02:58:36;;;;;;;18.60;13.60;;;;;;;15.64;100.00;99333.06;12216162;19;20030;-81
2023/05/22 03:02:38;;;;;;;17.85;13.07;;;;;;;15.60;100.00;99334.78;12194915;19;20879;-82
2023/05/22 03:06:44;;;;;;;21.65;13.75;;;;;;;15.56;100.00;99330.97;12213902;19;20775;-81
2023/05/22 03:10:46;;;;;;;19.80;13.15;;;;;;;15.50;100.00;99333.78;12214206;19;20575;-81
2023/05/22 03:14:48;;;;;;;19.27;12.43;;;;;;;15.46;100.00;99341.03;12191950;19;20022;-79
2023/05/22 03:18:50;;;;;;;17.85;13.45;;;;;;;15.44;100.00;99348.84;12211584;19;20369;-81
2023/05/22 03:22:52;;;;;;;18.97;13.13;;;;;;;15.41;100.00;99354.97;12214343;19;20007;-81
2023/05/22 03:26:54;;;;;;;19.02;12.43;;;;;;;15.38;100.00;99350.03;12190593;19;20918;-79
2023/05/22 03:31:09;;;;;;;19.30;12.48;;;;;;;15.37;100.00;99351.13;12212779;19;20031;-82
2023/05/22 03:35:27;;;;;;;21.48;13.05;;;;;;;15.37;100.00;99359.44;12189307;19;20450;-82
2023/05/22 03:39:29;;;;;;;18.35;13.13;;;;;;;15.37;100.00;99356.69;12211999;19;20062;-81
2023/05/22 03:43:35;;;;;;;18.75;13.43;;;;;;;15.40;100.00;99363.59;12211231;19;20011;-82
2023/05/22 03:47:38;;;;;;;19.67;12.90;;;;;;;15.41;100.00;99360.53;12190044;19;20014;-81
2023/05/22 03:51:40;;;;;;;18.93;14.20;;;;;;;15.43;100.00;99360.22;12210886;19;20028;-82
2023/05/22 03:55:42;;;;;;;19.95;13.15;;;;;;;15.48;100.00;99361.00;12209737;19;20027;-81
2023/05/22 03:59:43;;;;;;;18.80;13.80;;;;;;;15.52;100.00;99347.38;12188352;19;20012;-81
2023/05/22 04:03:46;;;;;;;19.20;13.02;;;;;;;15.58;100.00;99350.91;12211274;19;20402;-79
2023/05/22 04:07:48;;;;;;;22.30;13.77;;;;;;;15.61;100.00;99351.16;12205968;19;20007;-81
2023/05/22 04:11:49;;;;;;;17.80;12.60;;;;;;;15.64;100.00;99349.75;12189297;19;20037;-82
2023/05/22 04:15:52;;;;;;;18.90;13.55;;;;;;;15.67;100.00;99357.47;12209357;19;20035;-82
2023/05/22 04:19:56;;;;;;;19.05;13.02;;;;;;;15.68;100.00;99353.63;12207748;19;20007;-80
2023/05/22 04:24:00;;;;;;;19.55;13.93;;;;;;;15.69;100.00;99363.59;12185245;19;20024;-79
2023/05/22 04:28:05;;;;;;;20.83;14.20;;;;;;;15.71;100.00;99369.69;12208887;19;20026;-80
2023/05/22 04:32:10;;;;;;;19.10;13.82;;;;;;;15.75;100.00;99375.50;12192503;19;20073;-79
2023/05/22 04:36:12;;;;;;;20.60;13.38;;;;;;;15.76;100.00;99372.41;12207365;19;20014;-80
2023/05/22 04:40:14;;;;;;;20.83;14.35;;;;;;;15.78;100.00;99375.72;12205532;19;20023;-81
2023/05/22 04:44:16;;;;;;;17.30;13.73;;;;;;;15.83;100.00;99385.97;12187032;19;20023;-82
2023/05/22 04:48:18;;;;;;;17.37;13.43;;;;;;;15.90;100.00;99387.25;12205449;19;20007;-80
2023/05/22 04:52:21;;;;;;;17.15;11.50;;;;;;;15.97;100.00;99388.84;12207677;19;20407;-81
2023/05/22 04:56:23;;;;;;;20.40;13.23;;;;;;;16.01;100.00;99387.97;12192365;19;20003;-82
2023/05/22 05:00:38;;;;;;;20.20;13.27;;;;;;;16.08;100.00;99387.59;12221087;19;20486;-80
2023/05/22 05:04:42;;;;;;;16.95;13.02;;;;;;;16.14;100.00;99389.19;12218937;19;20027;-81
2023/05/22 05:08:45;;;;;;;19.10;14.02;;;;;;;16.20;100.00;99385.22;12195770;19;20361;-81
2023/05/22 05:12:49;;;;;;;19.45;13.88;;;;;;;16.26;100.00;99388.78;12219009;19;20006;-82
2023/05/22 05:16:53;;;;;;;20.30;14.48;;;;;;;16.32;100.00;99387.56;12218797;19;20007;-80
2023/05/22 05:20:56;;;;;;;19.25;14.00;;;;;;;16.40;100.00;99398.03;12198968;19;20014;-81
2023/05/22 05:25:00;;;;;;;22.20;14.38;;;;;;;16.45;100.00;99394.34;12220202;19;20034;-81
2023/05/22 05:29:01;;;;;;;17.40;12.75;;;;;;;16.52;100.00;99397.59;12220722;19;20014;-82
2023/05/22 05:33:11;;;;;;;20.92;14.38;;;;;;;16.59;100.00;99398.06;12197319;19;20749;-80
2023/05/22 05:37:23;;;;;;;20.65;14.75;;;;;;;16.68;100.00;99399.03;12220060;19;20010;-80
2023/05/22 05:41:26;;;;;;;22.35;14.68;;;;;;;16.75;100.00;99393.94;12196093;19;20020;-81
2023/05/22 05:45:35;;;;;;;20.00;13.48;;;;;;;16.80;100.00;99399.44;12203291;19;20032;-79
2023/05/22 05:49:38;;;;;;;21.90;14.83;;;;;;;16.84;100.00;99403.28;12206567;19;20006;-81
2023/05/22 05:53:40;;;;;;;;;;;;;;;16.88;100.00;99408.25;12199776;19;20102;-81
2023/05/22 05:57:43;;;;;;;19.77;13.90;;;;;;;16.95;100.00;99392.81;12216800;19;19914;-80
2023/05/22 06:02:01;;;;;;;19.15;13.35;;;;;;;17.06;100.00;99404.63;12228729;19;20042;-81
2023/05/22 06:06:06;;;;;;;22.60;14.98;;;;;;;17.16;100.00;99407.22;12203037;19;20018;-81
2023/05/22 06:10:29;;;;;;;20.52;14.40;;;;;;;17.18;100.00;99407.75;12222448;19;20028;-81
2023/05/22 06:14:36;;;;;;;23.35;15.98;;;;;;;17.24;100.00;99419.66;12198090;19;20582;-81
2023/05/22 06:18:38;;;;;;;20.98;14.40;;;;;;;17.30;100.00;99419.25;12217431;19;20494;-81
2023/05/22 06:22:42;;;;;;;22.48;15.30;;;;;;;17.43;100.00;99425.16;12216904;19;20002;-79
2023/05/22 06:26:45;;;;;;;22.98;15.52;;;;;;;17.56;100.00;99429.16;12197700;19;20735;-81
2023/05/22 06:30:49;;;;;;;22.92;16.42;;;;;;;17.63;100.00;99418.41;12217734;19;20010;-81
2023/05/22 06:34:55;;;;;;;23.05;16.38;;;;;;;17.69;100.00;99425.56;12214905;19;20472;-80
2023/05/22 06:39:01;;;;;;;22.23;16.58;;;;;;;17.76;100.00;99426.00;12194772;19;20014;-80
2023/05/22 06:43:24;;;;;;;23.92;16.88;;;;;;;17.83;100.00;99418.06;12212830;19;20096;-80
2023/05/22 06:47:32;;;;;;;21.50;16.65;;;;;;;17.92;100.00;99420.97;12190296;19;20077;-80
2023/05/22 06:51:36;;;;;;;24.65;16.42;;;;;;;17.96;100.00;99420.03;12215330;19;20366;-80
2023/05/22 06:55:41;;;;;;;25.63;16.80;;;;;;;18.04;100.00;99424.09;12214255;19;20010;-80
2023/05/22 06:59:49;;;;;;;23.55;18.13;;;;;;;18.14;100.00;99435.03;12192372;19;20103;-81
2023/05/22 07:04:12;;;;;;;28.05;16.98;;;;;;;18.20;100.00;99433.81;12215109;19;20033;-81
2023/05/22 07:08:44;;;;;;;22.50;15.60;;;;;;;18.42;100.00;99440.63;12190108;19;20030;-80
2023/05/22 07:12:46;;;;;;;25.60;16.63;;;;;;;18.63;100.00;99436.25;12214261;19;20467;-81
2023/05/22 07:16:51;;;;;;;24.88;17.00;;;;;;;18.83;100.00;99439.78;12215956;19;20082;-80
2023/05/22 07:21:00;;;;;;;22.17;17.00;;;;;;;19.08;100.00;99446.72;12194691;19;20072;-81
2023/05/22 07:25:06;;;;;;;23.80;16.67;;;;;;;19.20;100.00;99454.53;12215421;19;20046;-81
2023/05/22 07:29:08;;;;;;;27.27;16.92;;;;;;;19.35;100.00;99454.16;12190680;19;20024;-82
2023/05/22 07:33:12;;;;;;;28.50;16.50;;;;;;;19.56;100.00;99452.50;12215047;19;20007;-81
2023/05/22 07:37:16;;;;;;;23.27;15.32;;;;;;;19.72;100.00;99457.72;12214525;19;20078;-81
2023/05/22 07:41:24;;;;;;;20.88;15.50;;;;;;;20.02;100.00;99454.13;12194363;19;20102;-81
2023/05/22 07:45:28;;;;;;;21.13;15.77;;;;;;;20.33;100.00;99455.25;12214830;19;20360;-81
2023/05/22 07:49:33;;;;;;;22.70;16.02;;;;;;;20.65;100.00;99454.06;12214040;19;20468;-81
2023/05/22 07:53:35;;;;;;;;;;;;;;;20.83;100.00;99452.97;12192999;19;20014;-81
2023/05/22 07:57:38;;;;;;;22.38;14.52;;;;;;;21.08;100.00;99450.50;12222150;19;20470;-81
2023/05/22 08:01:55;;;;;;;21.30;15.20;;;;;;;21.23;100.00;99464.03;12231068;19;20398;-82
2023/05/22 08:05:58;;;;;;;21.20;15.35;;;;;;;21.47;100.00;99457.94;12197344;19;20006;-82
2023/05/22 08:10:02;;;;;;;;;;;;;;;21.83;100.00;99457.56;12221035;19;20007;-81
2023/05/22 08:14:04;;;;;;;20.02;14.10;;;;;;;22.30;95.71;99451.16;12220606;19;19926;-82
2023/05/22 08:18:06;;;;;;;18.55;14.50;;;;;;;22.54;92.18;99453.34;12197138;19;20033;-82
2023/05/22 08:22:08;;;;;;;20.63;13.90;;;;;;;22.94;86.89;99456.63;12218779;19;20010;-82
2023/05/22 08:26:11;;;;;;;19.45;14.68;;;;;;;23.31;84.14;99464.44;12193054;19;20046;-82
2023/05/22 08:30:12;;;;;;;20.27;14.83;;;;;;;23.52;80.72;99453.16;12220617;19;20739;-81
2023/05/22 08:34:14;;;;;;;20.43;13.53;;;;;;;23.78;78.22;99461.38;12229691;19;20252;-82
2023/05/22 08:38:16;;;;;;;20.55;15.50;;;;;;;23.92;78.71;99458.28;12201418;19;20309;-82
2023/05/22 08:42:18;;;;;;;21.35;14.45;;;;;;;24.03;74.38;99460.28;12227512;19;20418;-81
2023/05/22 08:46:24;;;;;;;18.33;14.40;;;;;;;24.30;73.11;99457.97;12222484;19;20003;-82
2023/05/22 08:50:27;;;;;;;18.73;14.57;;;;;;;24.34;71.26;99451.31;12199634;19;19999;-82
2023/05/22 08:54:30;;;;;;;16.88;13.48;;;;;;;24.55;70.66;99453.22;12222902;19;20066;-83
2023/05/22 08:58:36;;;;;;;17.33;13.20;;;;;;;24.73;67.83;99445.34;12221901;19;20559;-82
2023/05/22 09:02:40;;;;;;;20.17;13.82;;;;;;;24.94;66.02;99450.84;12201232;19;20014;-82
2023/05/22 09:06:45;;;;;;;17.38;13.82;;;;;;;25.33;63.95;99446.41;12224874;19;20010;-82
2023/05/22 09:10:47;;;;;;;17.02;13.35;;;;;;;25.61;64.28;99442.75;12223514;19;20034;-82
2023/05/22 09:14:50;;;;;;;17.38;13.48;;;;;;;25.78;58.31;99441.63;12197499;19;20021;-81
2023/05/22 09:18:56;;;;;;;16.52;12.52;;;;;;;25.98;59.20;99434.97;12220762;19;20017;-82
2023/05/22 09:22:57;;;;;;;16.35;12.18;;;;;;;26.57;57.42;99436.91;12226727;19;20011;-83
2023/05/22 09:27:02;;;;;;;14.20;11.63;;;;;;;27.10;56.04;99439.34;12201147;19;20360;-83
2023/05/22 09:31:05;;;;;;;14.98;12.25;;;;;;;27.24;55.00;99434.00;12222589;19;20017;-82
2023/05/22 09:35:08;;;;;;;16.50;12.77;;;;;;;27.40;55.05;99430.31;12199813;19;20002;-82
2023/05/22 09:39:10;;;;;;;19.45;14.05;;;;;;;27.45;54.05;99435.66;12219986;19;20011;-82
2023/05/22 09:43:16;;;;;;;19.33;12.95;;;;;;;27.50;54.85;99435.38;12222256;19;20028;-82
2023/05/22 09:47:20;;;;;;;15.40;12.35;;;;;;;27.92;54.00;99434.59;12202516;19;20017;-82
2023/05/22 09:51:25;;;;;;;16.60;12.55;;;;;;;27.75;53.29;99435.03;12224189;19;20049;-82
2023/05/22 09:55:29;;;;;;;14.63;12.20;;;;;;;27.89;52.88;99435.34;12226318;19;20006;-82
2023/05/22 09:59:32;;;;;;;16.85;13.15;;;;;;;28.45;50.01;99443.28;12207418;19;20014;-82
2023/05/22 10:03:39;;;;;;;14.85;12.40;;;;;;;28.78;46.48;99436.09;12227411;19;20006;-82
2023/05/22 10:07:53;;;;;;;15.15;12.80;;;;;;;28.55;48.24;99436.94;12222589;19;20006;-82
2023/05/22 10:11:58;;;;;;;17.63;12.10;;;;;;;28.61;48.51;99437.44;12205903;19;20014;-83
2023/05/22 10:16:01;;;;;;;13.75;12.35;;;;;;;28.76;48.11;99427.16;12222674;19;20010;-83
2023/05/22 10:20:08;;;;;;;18.73;13.15;;;;;;;28.68;47.88;99420.56;12224167;19;20019;-82
2023/05/22 10:24:11;;;;;;;16.27;12.05;;;;;;;28.83;47.96;99430.09;12227782;19;20007;-83
2023/05/22 10:28:22;;;;;;;14.80;12.23;;;;;;;28.94;46.63;99422.56;12230671;19;20023;-82
2023/05/22 10:32:41;;;;;;;15.75;12.27;;;;;;;29.23;44.57;99415.28;12205514;19;20474;-83
2023/05/22 10:37:09;;;;;;;14.32;11.77;;;;;;;29.02;45.48;99415.81;12227592;19;20352;-82
2023/05/22 10:41:22;;;;;;;13.38;11.15;;;;;;;29.22;44.65;99405.16;12204493;19;20030;-83
2023/05/22 10:45:28;;;;;;;12.63;10.93;;;;;;;28.90;44.97;99404.69;12230729;19;20010;-83
2023/05/22 10:49:33;;;;;;;13.20;11.40;;;;;;;29.32;44.23;99389.47;12225336;19;20002;-83
2023/05/22 10:53:39;;;;;;;14.50;11.95;;;;;;;29.61;44.49;99393.44;12200423;19;20014;-83
2023/05/22 10:57:41;;;;;;;16.17;11.30;;;;;;;29.49;43.75;99390.88;12228537;19;20034;-82
2023/05/22 11:01:43;;;;;;;15.18;11.90;;;;;;;29.02;45.01;99384.63;12223419;19;20007;-83
2023/05/22 11:05:52;;;;;;;15.88;11.38;;;;;;;28.91;45.20;99394.97;12202965;19;20007;-82
2023/05/22 11:09:59;;;;;;;14.30;11.52;;;;;;;28.93;44.61;99392.56;12225168;19;20016;-82
2023/05/22 11:14:04;;;;;;;15.25;12.13;;;;;;;29.03;44.19;99383.44;12221871;19;20492;-83
2023/05/22 11:18:06;;;;;;;18.63;11.80;;;;;;;28.89;45.07;99377.53;12207852;19;20018;-81
2023/05/22 11:22:09;;;;;;;15.23;12.18;;;;;;;29.04;45.07;99368.03;12230803;19;20006;-81
2023/05/22 11:26:17;;;;;;;;;;;;;;;29.04;45.65;99367.22;12197815;19;20015;-81
2023/05/22 11:30:24;;;;;;;14.07;12.40;;;;;;;28.94;45.17;99365.81;12217345;19;19914;-80
2023/05/22 11:34:29;;;;;;;16.55;13.70;;;;;;;28.98;45.07;99368.75;12222793;19;20007;-81
2023/05/22 11:38:32;;;;;;;20.67;13.65;;;;;;;29.21;45.48;99368.63;12197122;19;20028;-81
2023/05/22 11:42:37;;;;;;;15.20;12.85;;;;;;;29.19;44.53;99362.56;12225697;19;20023;-83
2023/05/22 11:46:40;;;;;;;17.70;13.43;;;;;;;29.20;43.70;99364.19;12220089;19;20011;-80
2023/05/22 11:50:46;;;;;;;15.48;12.43;;;;;;;29.15;44.23;99356.00;12197089;19;20675;-80
2023/05/22 11:54:51;;;;;;;17.73;12.98;;;;;;;29.59;43.87;99352.47;12216195;19;20042;-79
2023/05/22 11:58:53;;;;;;;20.83;12.48;;;;;;;29.74;43.16;99351.44;12215770;19;20030;-80
2023/05/22 12:02:55;;;;;;;13.73;11.88;;;;;;;30.13;42.19;99342.44;12187559;19;22002;-80
2023/05/22 12:06:57;;;;;;;;;;;;;;;30.90;40.74;99342.63;12215422;19;20029;-80
2023/05/22 12:11:04;;;;;;;16.83;12.30;;;;;;;31.28;38.33;99330.56;12218349;19;20668;-80
2023/05/22 12:15:09;;;;;;;12.68;11.27;;;;;;;31.68;38.84;99337.25;12194804;19;20007;-80
2023/05/22 12:19:12;;;;;;;15.85;13.70;;;;;;;32.66;37.41;99331.16;12214457;19;20066;-80
2023/05/22 12:23:22;;;;;;;14.18;12.75;;;;;;;33.54;34.53;99324.72;12192850;19;20022;-81
2023/05/22 12:27:30;;;;;;;14.02;12.65;;;;;;;34.55;33.77;99321.91;12208996;19;20023;-80
2023/05/22 12:31:36;;;;;;;13.75;12.45;;;;;;;35.59;31.75;99313.69;12216230;19;20010;-80
2023/05/22 12:35:38;;;;;;;13.27;12.07;;;;;;;36.04;31.27;99304.78;12189168;19;20017;-80
2023/05/22 12:39:40;;;;;;;14.18;12.43;;;;;;;36.12;31.26;99307.56;12210526;19;20092;-78
2023/05/22 12:44:15;;;;;;;14.27;12.77;;;;;;;36.36;30.04;99306.28;12214767;19;20026;-85
2023/05/22 12:48:42;;;;;;;14.27;12.70;;;;;;;36.91;28.96;99298.28;12193989;19;20527;-86
2023/05/22 12:53:19;;;;;;;13.65;12.27;;;;;;;37.92;28.39;99291.91;12215727;19;20130;-85
2023/05/22 12:57:28;;;;;;;13.90;12.27;;;;;;;37.68;28.20;99296.22;12215798;19;20014;-86
2023/05/22 13:01:47;;;;;;;13.70;12.18;;;;;;;37.70;28.04;99290.84;12226060;19;20024;-85
2023/05/22 13:05:52;;;;;;;17.20;13.15;;;;;;;37.79;27.73;99283.22;12187921;19;20015;-85
2023/05/22 13:10:12;;;;;;;13.98;12.70;;;;;;;38.21;27.67;99292.03;12208095;19;20006;-86
2023/05/22 13:15:01;;;;;;;14.02;12.52;;;;;;;39.09;27.31;99292.09;12208966;19;20047;-85
2023/05/22 13:20:22;;;;;;;14.15;11.98;;;;;;;39.47;26.02;99292.19;12218631;19;20018;-87
2023/05/22 13:29:43;;;;;;;15.40;13.82;;;;;;;39.28;26.85;99288.22;12213068;19;20607;-86
2023/05/22 13:33:46;;;;;;;16.95;14.00;;;;;;;39.26;27.47;99278.41;12185919;19;20011;-86
2023/05/22 13:37:50;;;;;;;14.98;13.52;;;;;;;39.37;26.36;99273.97;12225983;19;20011;-86
2023/05/22 13:41:52;;;;;;;14.38;13.13;;;;;;;39.39;26.59;99276.41;12207534;19;20007;-80
2023/05/22 13:45:54;;;;;;;16.30;13.45;;;;;;;39.51;26.00;99272.72;12223092;19;20031;-80
2023/05/22 13:49:55;;;;;;;15.35;13.85;;;;;;;40.09;25.46;99263.78;12220565;19;20018;-82
2023/05/22 13:53:57;;;;;;;15.55;12.77;;;;;;;40.55;24.75;99275.00;12201181;19;20002;-82
2023/05/22 13:57:59;;;;;;;13.30;12.00;;;;;;;40.70;23.95;99275.31;12218452;19;20077;-79
2023/05/22 14:02:01;;;;;;;13.35;12.05;;;;;;;40.56;24.30;99279.50;12218240;19;20007;-81
2023/05/22 14:06:05;;;;;;;14.63;13.13;;;;;;;40.77;23.38;99278.72;12195253;19;20022;-80
2023/05/22 14:10:12;;;;;;;13.82;12.02;;;;;;;40.89;23.15;99264.69;12226789;19;20042;-85
2023/05/22 14:14:14;;;;;;;11.98;10.88;;;;;;;40.59;23.50;99263.31;12205826;19;20027;-81
2023/05/22 14:18:16;;;;;;;13.38;12.18;;;;;;;40.01;23.73;99252.94;12236848;19;20011;-81
2023/05/22 14:22:18;;;;;;;12.68;11.48;;;;;;;39.70;23.90;99250.66;12233782;19;20010;-81
2023/05/22 14:26:21;;;;;;;12.23;10.95;;;;;;;39.60;24.34;99246.09;12199147;19;20022;-82
2023/05/22 14:30:25;;;;;;;11.93;10.80;;;;;;;39.48;24.13;99239.06;12221543;19;19999;-80
2023/05/22 14:34:27;;;;;;;12.20;10.77;;;;;;;39.50;24.03;99239.38;12222033;19;20006;-81
2023/05/22 14:38:33;;;;;;;12.25;10.73;;;;;;;39.30;24.11;99248.28;12192790;19;20487;-82
2023/05/22 14:42:36;;;;;;;11.88;10.57;;;;;;;38.33;24.82;99260.91;12219611;19;20010;-82
2023/05/22 14:46:39;;;;;;;10.95;9.95;;;;;;;37.37;25.69;99247.66;12217769;19;20010;-79
2023/05/22 14:50:41;;;;;;;12.02;10.82;;;;;;;36.30;26.83;99249.88;12199112;19;20073;-82
2023/05/22 14:54:42;;;;;;;12.25;10.43;;;;;;;35.12;27.46;99250.47;12217819;19;20019;-80
2023/05/22 14:58:44;;;;;;;11.98;10.50;;;;;;;34.80;27.32;99250.88;12220187;19;20391;-81
2023/05/22 15:02:46;;;;;;;11.60;10.00;;;;;;;34.72;27.58;99255.09;12205274;19;20448;-82
2023/05/22 15:06:48;;;;;;;12.30;10.98;;;;;;;35.04;27.30;99260.44;12213881;19;20030;-81
2023/05/22 15:10:51;;;;;;;11.45;10.35;;;;;;;35.82;26.37;99264.19;12223943;19;20011;-81
2023/05/22 15:14:54;;;;;;;14.35;11.13;;;;;;;37.03;25.50;99250.88;12196100;19;20017;-81
2023/05/22 15:18:56;;;;;;;12.98;10.65;;;;;;;36.16;25.76;99245.19;12215432;19;20903;-81
2023/05/22 15:22:58;;;;;;;10.65;9.65;;;;;;;34.74;26.94;99243.19;12219332;19;20007;-81
2023/05/22 15:27:00;;;;;;;11.18;10.00;;;;;;;33.79;27.42;99241.66;12193642;19;20007;-83
2023/05/22 15:31:02;;;;;;;11.27;9.82;;;;;;;33.00;29.16;99239.34;12209540;19;20006;-83
2023/05/22 15:35:06;;;;;;;12.50;11.20;;;;;;;32.29;30.51;99240.34;12211593;19;20015;-83
2023/05/22 15:39:08;;;;;;;13.10;10.20;;;;;;;31.95;32.28;99245.72;12187369;19;20011;-80
2023/05/22 15:43:10;;;;;;;;;;;;;;;31.73;32.64;99237.13;12207272;19;20026;-80
2023/05/22 15:47:12;;;;;;;11.27;10.10;;;;;;;31.77;32.95;99237.16;12189468;19;20632;-83
2023/05/22 15:51:14;;;;;;;13.85;10.00;;;;;;;31.87;33.14;99233.47;12207737;19;20022;-80
2023/05/22 15:55:17;;;;;;;13.50;10.18;;;;;;;31.88;33.73;99231.44;12207106;19;20042;-81
2023/05/22 15:59:19;;;;;;;16.25;10.55;;;;;;;31.80;33.97;99230.63;12181303;19;20010;-81
2023/05/22 16:03:23;;;;;;;13.93;9.50;;;;;;;31.75;34.27;99240.38;12207276;19;20006;-82
2023/05/22 16:07:25;;;;;;;14.55;11.10;;;;;;;31.57;33.88;99241.63;12202232;19;20011;-81
2023/05/22 16:11:27;;;;;;;14.30;11.13;;;;;;;30.77;36.39;99246.22;12187124;19;20135;-81
2023/05/22 16:15:32;;;;;;;12.80;11.30;;;;;;;30.53;36.96;99244.09;12203460;19;19999;-83
2023/05/22 16:19:36;;;;;;;14.90;12.02;;;;;;;30.14;39.13;99245.47;12203335;19;20011;-82
2023/05/22 16:23:37;;;;;;;16.05;12.23;;;;;;;29.93;39.96;99251.81;12191470;19;20011;-82
2023/05/22 16:27:40;;;;;;;17.02;13.02;;;;;;;29.67;41.65;99260.50;12209978;19;20006;-81
2023/05/22 16:31:42;;;;;;;15.23;11.43;;;;;;;28.96;43.30;99267.00;12206174;19;20070;-82
2023/05/22 16:35:46;;;;;;;13.43;11.50;;;;;;;28.24;44.58;99272.91;12187900;19;20082;-82
2023/05/22 16:39:50;;;;;;;17.10;11.70;;;;;;;27.80;47.29;99267.75;12211704;19;20002;-82
2023/05/22 16:43:52;;;;;;;14.68;11.95;;;;;;;27.55;47.50;99251.13;12213196;19;20354;-84
2023/05/22 16:47:53;;;;;;;17.00;11.80;;;;;;;27.39;48.08;99259.72;12192945;19;20514;-83
2023/05/22 16:51:56;;;;;;;18.17;13.00;;;;;;;27.10;50.68;99289.47;12221316;19;20006;-83
2023/05/22 16:55:58;;;;;;;17.65;12.80;;;;;;;26.76;51.24;99311.78;12222568;19;20029;-82
2023/05/22 17:00:00;;;;;;;;;;;;;;;25.93;52.52;99330.78;12200793;19;20023;-79
2023/05/22 17:04:02;;;;;;;14.88;8.32;;;;;;;25.04;50.93;99362.94;12219018;19;19903;-82
2023/05/22 17:08:05;;;;;;;15.20;6.97;;;;;;;24.18;52.16;99368.69;12219790;19;20524;-80
2023/05/22 17:12:08;;;;;;;10.70;6.72;;;;;;;23.53;54.18;99362.00;12202725;19;20014;-81
2023/05/22 17:16:12;;;;;;;11.25;7.72;;;;;;;23.14;55.16;99350.16;12222204;19;20022;-81
2023/05/22 17:20:15;;;;;;;10.70;7.57;;;;;;;22.97;59.58;99384.88;12204122;19;20070;-82
2023/05/22 17:24:17;;;;;;;10.57;7.88;;;;;;;22.58;64.40;99391.75;12225181;19;20006;-83
2023/05/22 17:28:20;;;;;;;13.52;8.77;;;;;;;22.33;66.10;99401.94;12225394;19;20017;-81
2023/05/22 17:32:23;;;;;;;9.80;6.85;;;;;;;22.07;67.51;99391.63;12204028;19;20868;-83
2023/05/22 17:36:26;;;;;;;13.93;7.80;;;;;;;21.95;68.32;99400.78;12225734;19;20086;-83
2023/05/22 17:40:27;;;;;;;11.60;7.63;;;;;;;21.71;67.30;99381.69;12224077;19;20078;-84
2023/05/22 17:44:45;;;;;;;13.48;7.90;;;;;;;21.56;68.43;99376.63;12202826;19;20006;-83
2023/05/22 17:48:48;;;;;;;10.82;7.95;;;;;;;21.42;70.20;99388.06;12220810;19;20082;-84
2023/05/22 17:52:50;;;;;;;10.50;7.60;;;;;;;21.35;69.66;99394.13;12219845;19;20014;-85
2023/05/22 17:56:51;;;;;;;11.87;8.77;;;;;;;21.30;71.33;99397.13;12201704;19;20119;-84
2023/05/22 18:00:53;;;;;;;15.20;8.47;;;;;;;21.21;73.76;99409.47;12219693;19;20347;-83
2023/05/22 18:04:56;;;;;;;14.27;9.05;;;;;;;21.16;74.75;99425.28;12225554;19;20010;-84
2023/05/22 18:09:00;;;;;;;12.90;9.27;;;;;;;21.10;76.66;99429.41;12198779;19;20007;-84
2023/05/22 18:13:03;;;;;;;12.68;9.52;;;;;;;21.06;77.63;99417.22;12225470;19;20511;-83
2023/05/22 18:17:06;;;;;;;13.17;9.20;;;;;;;21.01;78.55;99419.38;12223333;19;20476;-83
2023/05/22 18:21:08;;;;;;;10.10;7.57;;;;;;;20.99;79.82;99424.47;12199744;19;20256;-83
2023/05/22 18:25:11;;;;;;;15.20;9.20;;;;;;;20.95;80.66;99415.91;12219928;19;20006;-83
2023/05/22 18:29:13;;;;;;;13.95;9.13;;;;;;;20.97;81.22;99416.41;12219632;19;20021;-84
2023/05/22 18:33:18;;;;;;;13.10;8.05;;;;;;;20.93;80.74;99419.03;12238501;19;20379;-85
2023/05/22 18:37:21;;;;;;;11.85;8.45;;;;;;;20.90;82.90;99408.47;12231741;19;20014;-85
2023/05/22 18:41:23;;;;;;;14.73;8.82;;;;;;;20.87;85.58;99411.94;12219895;19;20512;-85